Terminal Aerodrome Forecast
Issued by NWS

Home | Current Version | Previous Version | Text Only | Print | Product List | Glossary On
Versions: 1 2 3 4 5 6 7 8 9 10 11 12 13 14 15 16 17 18 19 20 21
000
FTUS43 KFGF 071133
TAFBJI
TAF
KBJI 071133Z 0712/0812 28022G30KT 2SM -SN OVC015
     FM072100 28017G25KT 1 1/2SM -SN BLSN OVC008
     FM080000 29018KT P6SM -SN OVC015=

USA.gov is the U.S. government's official web portal to all federal, state and local government web resources and services.